Time;durP1;ratioP1;P1;durP2;ratioP2;P2;SDS_P1;SDS_P2;PMS_P1;PMS_P2;Temp;Humidity;BMP_temperature;BMP_pressure;BME280_temperature;BME280_humidity;BME280_pressure;Samples;Min_cycle;Max_cycle;Signal;HPM_P1;HPM_P2
2023/03/30 00:03:32;;;;;;;20.70;8.90;;;;;;;4.46;59.12;98574.27;435573;1253;107580;-40
2023/03/30 00:13:40;;;;;;;15.90;8.00;;;;;;;4.51;59.48;98566.44;435395;1257;96597;-41
2023/03/30 00:23:48;;;;;;;12.00;6.70;;;;;;;4.55;59.69;98554.54;435253;1257;97934;-41
2023/03/30 00:33:56;;;;;;;13.10;7.90;;;;;;;4.59;59.97;98551.94;435779;1257;110159;-41
2023/03/30 00:44:07;;;;;;;12.00;7.00;;;;;;;4.61;60.08;98542.77;436532;1256;108489;-41
2023/03/30 00:54:19;;;;;;;11.00;6.80;;;;;;;4.65;60.39;98536.09;436459;1253;107265;-41
2023/03/30 01:04:27;;;;;;;7.50;5.70;;;;;;;4.68;60.56;98528.69;435516;1253;100866;-39
2023/03/30 01:14:34;;;;;;;9.80;5.20;;;;;;;4.78;60.80;98528.10;436418;1251;110062;-41
2023/03/30 01:24:53;;;;;;;10.50;6.10;;;;;;;4.85;60.98;98520.75;435434;1251;106930;-41
2023/03/30 01:35:28;;;;;;;11.00;6.50;;;;;;;4.82;61.22;98513.25;435535;1256;97817;-42
2023/03/30 01:45:33;;;;;;;12.10;6.80;;;;;;;4.77;61.55;98491.91;435654;1257;109256;-41
2023/03/30 01:55:43;;;;;;;8.40;5.70;;;;;;;4.74;61.85;98491.42;435280;1251;108476;-41
2023/03/30 02:05:48;;;;;;;11.90;6.30;;;;;;;4.73;62.16;98483.55;435244;1256;97890;-42
2023/03/30 02:16:02;;;;;;;11.60;6.20;;;;;;;4.72;62.44;98479.23;435225;1253;97890;-41
2023/03/30 02:26:10;;;;;;;11.10;5.10;;;;;;;4.79;62.73;98469.84;435697;1256;108840;-42
2023/03/30 02:36:20;;;;;;;7.80;4.80;;;;;;;4.89;63.03;98458.53;436305;1255;107863;-40
2023/03/30 02:46:31;;;;;;;9.20;6.40;;;;;;;4.97;63.24;98459.16;435664;1256;97877;-41
2023/03/30 02:56:42;;;;;;;10.10;6.30;;;;;;;4.96;63.38;98455.04;436212;1256;111504;-42
2023/03/30 03:06:51;;;;;;;15.40;6.30;;;;;;;4.93;63.84;98416.94;435549;1253;108249;-41
2023/03/30 03:16:59;;;;;;;12.80;6.50;;;;;;;4.91;63.95;98409.56;435394;1256;97480;-41
2023/03/30 03:27:07;;;;;;;9.00;3.90;;;;;;;4.95;64.06;98406.14;435223;1256;97359;-40
2023/03/30 03:37:14;;;;;;;5.70;4.10;;;;;;;5.05;64.29;98398.79;435320;1256;108860;-41
2023/03/30 03:47:22;;;;;;;9.20;5.90;;;;;;;5.13;64.56;98380.20;435051;1253;446987;-41
2023/03/30 03:57:29;;;;;;;10.20;6.70;;;;;;;5.11;64.82;98381.41;435271;1253;97899;-42
2023/03/30 04:07:37;;;;;;;9.20;5.30;;;;;;;5.06;65.08;98377.30;435371;1256;109799;-41
2023/03/30 04:27:52;;;;;;;5.00;3.70;;;;;;;5.06;65.98;98349.08;435321;1256;96628;-41
2023/03/30 04:38:00;;;;;;;12.50;5.10;;;;;;;5.16;66.20;98334.04;435510;1251;109755;-42
2023/03/30 04:48:08;;;;;;;12.00;6.50;;;;;;;5.22;66.34;98326.88;435443;1256;120735;-40
2023/03/30 04:58:16;;;;;;;13.20;6.30;;;;;;;5.25;66.32;98317.91;435564;1253;97906;-41
2023/03/30 05:08:24;;;;;;;13.40;6.60;;;;;;;5.31;66.30;98309.80;435308;1256;109217;-42
2023/03/30 05:18:31;;;;;;;6.40;4.20;;;;;;;5.45;66.10;98301.74;435264;1253;108055;-40
2023/03/30 05:28:39;;;;;;;13.50;4.40;;;;;;;5.66;66.35;98297.39;435283;1251;97886;-40
2023/03/30 05:38:46;;;;;;;14.10;6.20;;;;;;;5.79;66.44;98295.05;435396;1256;108641;-40
2023/03/30 05:48:53;;;;;;;21.90;5.90;;;;;;;5.87;66.45;98291.45;435437;1251;108160;-42
2023/03/30 05:59:03;;;;;;;14.10;6.60;;;;;;;5.94;66.49;98298.30;435351;1256;97948;-41
2023/03/30 06:09:11;;;;;;;10.70;6.20;;;;;;;6.05;66.37;98297.04;435502;1253;96622;-42
2023/03/30 06:19:18;;;;;;;13.90;6.40;;;;;;;6.29;66.58;98287.79;435235;1255;109325;-43
2023/03/30 06:39:36;;;;;;;31.50;8.80;;;;;;;7.04;66.15;98263.10;435437;1254;96634;-41
2023/03/30 06:49:43;;;;;;;14.80;6.10;;;;;;;7.45;65.92;98258.66;435405;1251;109745;-42
2023/03/30 06:59:51;;;;;;;12.90;6.40;;;;;;;7.67;65.40;98252.98;435391;1256;108606;-41
2023/03/30 07:09:58;;;;;;;14.40;6.70;;;;;;;7.83;65.27;98256.14;435366;1256;96634;-40
2023/03/30 07:20:08;;;;;;;9.30;5.00;;;;;;;7.93;65.20;98251.59;435329;1256;97499;-40
2023/03/30 07:40:28;;;;;;;24.00;6.40;;;;;;;8.09;65.49;98258.77;435433;1256;107329;-41
2023/03/30 07:50:35;;;;;;;30.40;7.80;;;;;;;8.38;66.19;98232.40;435115;1256;97980;-42
2023/03/30 08:00:43;;;;;;;20.20;6.40;;;;;;;9.55;65.83;98219.48;435291;1253;111658;-40
2023/03/30 08:10:51;;;;;;;12.60;5.60;;;;;;;10.67;64.26;98205.73;435223;1253;107264;-41
2023/03/30 08:20:59;;;;;;;27.60;5.50;;;;;;;10.81;63.27;98195.59;435344;1256;118402;-40
2023/03/30 08:41:25;;;;;;;10.00;6.20;;;;;;;10.95;61.96;98186.75;435544;1251;97854;-41
2023/03/30 08:51:34;;;;;;;14.20;5.10;;;;;;;11.02;61.41;98170.08;435379;1253;109666;-44
2023/03/30 09:01:39;;;;;;;10.30;6.00;;;;;;;11.39;61.31;98151.17;435444;1256;108749;-42
2023/03/30 09:11:46;;;;;;;11.20;5.30;;;;;;;12.24;60.80;98143.42;435353;1256;97895;-44
2023/03/30 09:21:56;;;;;;;7.60;5.80;;;;;;;12.49;59.66;98138.81;435345;1256;109769;-41
2023/03/30 09:32:11;;;;;;;11.40;5.70;;;;;;;12.22;59.45;98128.67;435467;1251;106990;-42
2023/03/30 09:42:27;;;;;;;11.80;5.70;;;;;;;12.42;59.44;98105.50;435263;1256;97875;-42
2023/03/30 10:02:40;;;;;;;9.00;4.80;;;;;;;13.39;57.48;98071.17;435205;1256;107808;-42
2023/03/30 10:12:50;;;;;;;14.10;4.90;;;;;;;13.75;57.60;98040.49;435350;1255;96572;-41
2023/03/30 10:23:00;;;;;;;8.40;4.20;;;;;;;14.24;55.95;98031.14;435237;1254;110986;-41
2023/03/30 10:33:11;;;;;;;9.10;4.60;;;;;;;14.28;55.70;98023.11;435366;1253;107529;-42
2023/03/30 10:43:23;;;;;;;13.40;4.60;;;;;;;14.33;55.55;98019.16;435449;1256;96638;-41
2023/03/30 10:53:34;;;;;;;7.30;3.80;;;;;;;14.71;55.45;98004.59;435274;1251;110737;-42
2023/03/30 11:03:46;;;;;;;19.40;4.80;;;;;;;14.94;54.65;97982.05;435344;1264;107257;-41
2023/03/30 11:13:54;;;;;;;5.80;4.00;;;;;;;15.00;54.62;97960.86;435401;1256;97258;-42
2023/03/30 11:24:09;;;;;;;17.90;5.40;;;;;;;14.63;53.95;97950.16;435218;1253;109823;-42
2023/03/30 11:44:26;;;;;;;15.20;5.20;;;;;;;14.08;54.56;97980.00;435401;1254;96640;-41
2023/03/30 12:05:11;;;;;;;14.30;4.80;;;;;;;13.80;54.72;97966.21;435175;1256;109387;-42
2023/03/30 12:15:25;;;;;;;11.90;5.10;;;;;;;13.78;55.06;97947.61;435308;1254;97904;-40
2023/03/30 12:25:32;;;;;;;9.30;5.30;;;;;;;13.72;55.33;97950.89;435317;1253;108848;-42
2023/03/30 12:36:01;;;;;;;16.20;5.50;;;;;;;13.68;55.22;97951.97;435397;1257;107835;-42
2023/03/30 12:46:07;;;;;;;11.60;4.90;;;;;;;13.31;55.52;97960.05;435181;1257;96617;-42
2023/03/30 12:56:17;;;;;;;13.40;5.50;;;;;;;12.93;56.15;97954.95;435349;1257;108376;-40
2023/03/30 13:06:22;;;;;;;7.50;5.20;;;;;;;12.87;56.84;97953.19;435164;1256;97467;-42
2023/03/30 13:26:54;;;;;;;17.60;7.70;;;;;;;12.87;57.94;97947.72;435569;1256;108247;-43
2023/03/30 13:47:05;;;;;;;17.90;8.00;;;;;;;12.55;59.31;97947.55;435294;1256;109965;-41
2023/03/30 13:57:12;;;;;;;15.20;9.70;;;;;;;12.64;59.76;97938.95;435495;1253;107892;-40
2023/03/30 14:07:22;;;;;;;19.70;9.00;;;;;;;12.89;60.04;97922.57;435323;1256;97896;-41
2023/03/30 14:17:30;;;;;;;15.00;8.50;;;;;;;13.13;60.10;97912.48;435443;1257;110733;-41
2023/03/30 14:37:46;;;;;;;16.80;8.60;;;;;;;13.04;60.36;97896.65;435545;1257;97899;-40
2023/03/30 14:47:59;;;;;;;21.10;8.90;;;;;;;12.95;60.54;97884.64;435514;1251;109677;-42
2023/03/30 14:58:06;;;;;;;19.60;10.60;;;;;;;12.75;60.79;97879.71;435257;1257;108366;-43
2023/03/30 15:08:15;;;;;;;14.90;8.80;;;;;;;12.59;61.11;97861.69;435433;1257;97756;-41
2023/03/30 15:18:22;;;;;;;18.00;9.10;;;;;;;12.48;61.46;97859.84;435443;1254;109968;-42
2023/03/30 15:28:33;;;;;;;20.90;8.10;;;;;;;12.49;61.86;97852.95;435243;1253;110601;-42
2023/03/30 15:38:43;;;;;;;21.30;11.70;;;;;;;12.50;62.35;97844.84;435245;1254;98529;-42
2023/03/30 15:48:50;;;;;;;20.50;11.70;;;;;;;12.41;62.59;97833.79;434903;1254;438128;-40
2023/03/30 15:58:59;;;;;;;19.00;11.00;;;;;;;12.22;63.01;97824.02;435240;1254;97888;-41
2023/03/30 16:09:05;;;;;;;;;;;;;;;12.01;63.28;97807.09;435274;1256;110311;-42
2023/03/30 16:19:10;;;;;;;20.60;10.30;;;;;;;11.80;63.84;97802.63;435437;1257;107981;-41
2023/03/30 16:49:36;;;;;;;21.80;10.10;;;;;;;11.46;65.82;97772.23;435184;1253;108171;-42
2023/03/30 16:59:42;;;;;;;20.70;9.60;;;;;;;11.13;67.07;97754.98;435234;1257;97985;-42
2023/03/30 17:09:49;;;;;;;25.60;13.50;;;;;;;10.75;68.59;97736.28;435532;1257;109167;-42
2023/03/30 17:19:59;;;;;;;22.40;12.70;;;;;;;10.52;69.87;97729.42;435002;1257;97902;-40
2023/03/30 17:30:17;;;;;;;24.90;15.00;;;;;;;10.47;69.75;97787.33;435469;1258;108945;-41
2023/03/30 17:40:27;;;;;;;21.90;11.70;;;;;;;10.33;70.64;97805.73;435180;1258;107647;-41
2023/03/30 17:50:38;;;;;;;18.90;13.30;;;;;;;10.28;71.55;97797.79;435234;1257;97903;-41
2023/03/30 18:10:54;;;;;;;22.10;14.30;;;;;;;10.06;72.57;97827.10;435222;1254;97966;-42
2023/03/30 18:21:02;;;;;;;25.80;17.70;;;;;;;10.00;72.92;97822.16;435110;1257;108844;-42
2023/03/30 18:31:11;;;;;;;25.80;16.60;;;;;;;9.93;73.93;97813.46;435126;1254;108325;-42
2023/03/30 18:41:19;;;;;;;25.30;16.60;;;;;;;9.90;74.27;97816.05;435204;1251;98071;-42
2023/03/30 18:51:26;;;;;;;28.50;17.60;;;;;;;9.84;74.87;97811.96;435110;1256;107106;-41
2023/03/30 19:01:35;;;;;;;30.40;15.50;;;;;;;9.70;75.83;97798.02;435096;1256;97876;-42
2023/03/30 19:11:41;;;;;;;23.30;15.70;;;;;;;9.64;75.87;97800.30;435291;1257;110002;-41
2023/03/30 19:21:53;;;;;;;27.70;17.00;;;;;;;9.54;76.31;97796.48;435164;1256;107054;-41
2023/03/30 19:32:01;;;;;;;25.50;16.60;;;;;;;9.50;76.39;97780.43;435278;1257;97877;-41
2023/03/30 19:42:07;;;;;;;25.50;14.90;;;;;;;9.47;76.54;97774.73;434984;1256;108175;-42
2023/03/30 20:12:30;;;;;;;29.50;16.60;;;;;;;9.39;77.80;97740.02;435357;1258;105919;-40
2023/03/30 20:22:40;;;;;;;31.90;18.50;;;;;;;9.39;78.29;97728.03;435142;1256;97906;-41
2023/03/30 20:32:49;;;;;;;30.70;18.40;;;;;;;9.36;78.40;97717.54;435261;1254;108932;-42
2023/03/30 20:43:12;;;;;;;27.90;17.10;;;;;;;9.32;78.91;97710.84;435136;1256;97873;-42
2023/03/30 20:53:20;;;;;;;25.80;17.30;;;;;;;9.24;79.31;97712.32;435049;1258;110741;-41
2023/03/30 21:03:28;;;;;;;29.50;16.20;;;;;;;9.22;79.41;97721.25;435124;1256;107816;-41
2023/03/30 21:13:36;;;;;;;33.20;17.50;;;;;;;9.23;79.58;97719.91;435226;1254;97879;-41
2023/03/30 21:33:50;;;;;;;31.00;20.60;;;;;;;9.22;80.01;97727.96;435112;1254;97873;-41
2023/03/30 21:43:57;;;;;;;36.00;19.40;;;;;;;9.23;80.24;97751.88;435223;1256;110224;-39
2023/03/30 21:54:04;;;;;;;29.30;18.60;;;;;;;9.22;80.63;97757.45;435243;1256;108184;-41
2023/03/30 22:04:11;;;;;;;31.20;19.40;;;;;;;9.22;80.42;97751.48;435486;1253;97870;-41
2023/03/30 22:14:18;;;;;;;26.30;18.50;;;;;;;9.17;80.71;97732.73;435023;1256;108600;-40
2023/03/30 22:24:25;;;;;;;26.20;19.10;;;;;;;9.15;80.65;97718.20;435179;1256;97851;-41
2023/03/30 22:34:33;;;;;;;30.80;19.50;;;;;;;9.12;80.76;97700.66;435089;1256;110664;-41
2023/03/30 22:44:40;;;;;;;30.70;21.80;;;;;;;9.09;80.80;97705.73;435180;1256;108212;-41
2023/03/30 22:54:47;;;;;;;32.50;21.20;;;;;;;9.03;81.02;97703.70;435190;1256;98447;-40
2023/03/30 23:04:54;;;;;;;33.80;19.90;;;;;;;9.05;80.95;97714.70;435133;1253;110917;-41
2023/03/30 23:15:01;;;;;;;27.00;19.10;;;;;;;9.00;81.14;97719.20;435244;1256;97442;-41
2023/03/30 23:25:09;;;;;;;30.20;17.80;;;;;;;8.95;81.64;97732.58;435081;1256;111186;-41
2023/03/30 23:35:15;;;;;;;29.00;20.70;;;;;;;8.96;81.74;97739.54;435143;1257;106689;-39
2023/03/30 23:45:22;;;;;;;30.60;22.10;;;;;;;8.97;81.85;97742.08;435263;1256;97900;-40
2023/03/30 23:55:29;;;;;;;25.40;17.70;;;;;;;8.93;82.07;97741.19;435652;1256;107192;-46
